createdAt,value
2018-03-25T00:00:36.394Z,76.70
2018-03-25T00:03:06.111Z,76.70
2018-03-25T00:05:34.481Z,76.90
2018-03-25T00:08:02.102Z,76.90
2018-03-25T00:10:29.815Z,77.50
2018-03-25T00:12:57.406Z,77.40
2018-03-25T00:15:26.077Z,77.10
2018-03-25T00:17:54.463Z,77.70
2018-03-25T00:20:23.056Z,77.20
2018-03-25T00:22:50.682Z,76.90
2018-03-25T00:25:19.640Z,77.00
2018-03-25T00:27:47.298Z,77.00
2018-03-25T00:30:14.878Z,77.40
2018-03-25T00:32:42.482Z,77.00
2018-03-25T00:35:10.102Z,77.40
2018-03-25T00:37:38.792Z,77.10
2018-03-25T00:40:06.452Z,77.70
2018-03-25T00:42:34.153Z,77.70
2018-03-25T00:45:02.774Z,79.60
2018-03-25T00:47:30.366Z,78.90
2018-03-25T00:49:57.982Z,79.20
2018-03-25T00:52:25.624Z,79.40
2018-03-25T00:54:53.249Z,79.60
2018-03-25T00:57:20.897Z,79.80
2018-03-25T00:59:48.486Z,80.20
2018-03-25T01:02:16.100Z,80.20
2018-03-25T01:04:43.768Z,80.20
2018-03-25T01:07:11.380Z,80.40
2018-03-25T01:09:38.987Z,80.70
2018-03-25T01:12:06.581Z,80.90
2018-03-25T01:14:34.212Z,81.00
2018-03-25T01:17:01.804Z,81.50
2018-03-25T01:19:30.209Z,81.10
2018-03-25T01:21:58.472Z,81.10
2018-03-25T01:24:26.169Z,81.30
2018-03-25T01:26:53.760Z,81.70
2018-03-25T01:29:21.328Z,81.80
2018-03-25T01:31:48.946Z,82.90
2018-03-25T01:34:16.531Z,82.00
2018-03-25T01:36:44.322Z,82.50
2018-03-25T01:39:11.909Z,82.80
2018-03-25T01:41:40.399Z,83.00
2018-03-25T01:44:08.843Z,83.40
2018-03-25T01:46:36.464Z,83.30
2018-03-25T01:49:04.859Z,83.80
2018-03-25T01:51:32.512Z,83.80
2018-03-25T01:54:00.879Z,84.10
2018-03-25T01:56:28.547Z,84.00
2018-03-25T01:58:56.168Z,84.10
2018-03-25T02:01:24.496Z,85.20
2018-03-25T02:03:52.119Z,84.50
2018-03-25T02:06:19.725Z,84.70
2018-03-25T02:08:47.336Z,84.60
2018-03-25T02:11:14.924Z,85.20
2018-03-25T02:13:42.577Z,85.20
2018-03-25T02:16:10.238Z,85.10
2018-03-25T02:18:37.824Z,85.30
2018-03-25T02:21:05.446Z,85.20
2018-03-25T02:23:33.054Z,85.60
2018-03-25T02:26:01.449Z,85.70
2018-03-25T02:28:29.111Z,85.70
2018-03-25T02:30:56.698Z,85.90
2018-03-25T02:33:26.073Z,86.00
2018-03-25T02:35:53.702Z,86.00
2018-03-25T02:38:21.282Z,85.80
2018-03-25T02:40:48.932Z,85.80
2018-03-25T02:43:17.284Z,86.40
2018-03-25T02:45:44.942Z,86.30
2018-03-25T02:48:12.545Z,86.80
2018-03-25T02:50:40.194Z,86.90
2018-03-25T02:53:07.786Z,86.60
2018-03-25T02:55:35.386Z,86.80
2018-03-25T02:58:03.089Z,86.40
2018-03-25T03:00:31.480Z,86.80
2018-03-25T03:02:59.843Z,87.40
2018-03-25T03:05:28.265Z,87.40
2018-03-25T03:07:55.981Z,87.10
2018-03-25T03:10:23.622Z,87.30
2018-03-25T03:12:52.637Z,87.50
2018-03-25T03:15:20.279Z,87.10
2018-03-25T03:17:47.897Z,86.80
2018-03-25T03:20:15.522Z,87.00
2018-03-25T03:22:43.732Z,87.90
2018-03-25T03:25:11.352Z,88.30
2018-03-25T03:27:38.974Z,88.40
2018-03-25T03:30:08.825Z,88.70
2018-03-25T03:32:36.447Z,88.60
2018-03-25T03:35:04.960Z,88.00
2018-03-25T03:37:33.382Z,88.40
2018-03-25T03:40:00.989Z,88.40
2018-03-25T03:42:28.636Z,88.60
2018-03-25T03:44:56.313Z,88.60
2018-03-25T03:47:23.949Z,88.40
2018-03-25T03:49:51.605Z,89.30
2018-03-25T03:52:19.191Z,90.00
2018-03-25T03:54:46.829Z,89.70
2018-03-25T03:57:14.461Z,89.40
2018-03-25T03:59:43.062Z,89.50
2018-03-25T04:02:10.736Z,89.40
2018-03-25T04:04:39.206Z,90.00
2018-03-25T04:07:07.610Z,90.50
2018-03-25T04:09:35.999Z,90.20
2018-03-25T04:12:04.172Z,90.20
2018-03-25T04:14:31.810Z,90.20
2018-03-25T04:16:59.496Z,90.30
2018-03-25T04:19:28.050Z,90.30
2018-03-25T04:21:55.677Z,90.30
2018-03-25T04:24:23.901Z,90.20
2018-03-25T04:26:51.573Z,90.30
2018-03-25T04:29:19.175Z,90.00
2018-03-25T04:31:46.810Z,90.10
2018-03-25T04:34:14.459Z,90.00
2018-03-25T04:36:42.305Z,90.10
2018-03-25T04:39:09.911Z,90.00
2018-03-25T04:41:37.537Z,90.30
2018-03-25T04:44:05.175Z,89.70
2018-03-25T04:46:32.763Z,90.20
2018-03-25T04:49:00.416Z,90.50
2018-03-25T04:51:28.016Z,90.60
2018-03-25T04:53:55.688Z,90.50
2018-03-25T04:56:23.840Z,90.30
2018-03-25T04:58:51.481Z,90.50
2018-03-25T05:01:19.071Z,90.40
2018-03-25T05:03:46.697Z,90.40
2018-03-25T05:06:15.100Z,90.30
2018-03-25T05:08:43.372Z,90.30
2018-03-25T05:11:10.970Z,90.40
2018-03-25T05:13:39.037Z,90.50
2018-03-25T05:16:06.629Z,90.40
2018-03-25T05:18:34.255Z,90.60
2018-03-25T05:21:01.889Z,90.80
2018-03-25T05:23:30.290Z,90.80
2018-03-25T05:25:57.997Z,90.70
2018-03-25T05:28:25.666Z,90.80
2018-03-25T05:30:53.262Z,90.80
2018-03-25T05:33:20.849Z,90.40
2018-03-25T05:35:49.242Z,90.40
2018-03-25T05:38:18.200Z,90.00
2018-03-25T05:40:46.382Z,90.00
2018-03-25T05:43:13.974Z,89.40
2018-03-25T05:45:42.592Z,90.00
2018-03-25T05:48:10.194Z,90.00
2018-03-25T05:50:37.846Z,90.00
2018-03-25T05:53:05.421Z,90.30
2018-03-25T05:55:33.071Z,90.00
2018-03-25T05:58:00.715Z,89.90
2018-03-25T06:00:28.326Z,90.00
2018-03-25T06:02:55.979Z,90.00
2018-03-25T06:05:24.261Z,90.30
2018-03-25T06:07:51.897Z,90.10
2018-03-25T06:10:19.533Z,90.20
2018-03-25T06:12:47.947Z,89.80
2018-03-25T06:15:15.621Z,89.80
2018-03-25T06:17:43.271Z,90.00
2018-03-25T06:20:10.938Z,90.10
2018-03-25T06:22:38.599Z,89.90
2018-03-25T06:25:06.973Z,90.10
2018-03-25T06:27:35.459Z,90.30
2018-03-25T06:30:03.927Z,90.20
2018-03-25T06:32:32.324Z,90.20
2018-03-25T06:34:59.998Z,90.20
2018-03-25T06:37:28.500Z,90.10
2018-03-25T06:39:56.129Z,90.10
2018-03-25T06:42:24.619Z,90.30
2018-03-25T06:44:52.331Z,90.30
2018-03-25T06:47:19.983Z,90.00
2018-03-25T06:49:47.609Z,89.10
2018-03-25T06:52:15.233Z,88.10
2018-03-25T06:54:43.279Z,87.10
2018-03-25T06:57:11.703Z,86.40
2018-03-25T06:59:39.342Z,86.40
2018-03-25T07:02:07.021Z,85.90
2018-03-25T07:04:34.706Z,85.80
2018-03-25T07:07:02.395Z,84.90
2018-03-25T07:09:30.118Z,84.90
2018-03-25T07:11:57.960Z,85.00
2018-03-25T07:14:27.071Z,86.80
2018-03-25T07:16:54.698Z,86.70
2018-03-25T07:19:22.387Z,86.90
2018-03-25T07:21:50.804Z,86.80
2018-03-25T07:24:18.511Z,86.80
2018-03-25T07:26:46.192Z,87.10
2018-03-25T07:29:13.933Z,86.60
2018-03-25T07:31:41.619Z,86.80
2018-03-25T07:34:09.275Z,86.80
2018-03-25T07:36:36.941Z,86.70
2018-03-25T07:39:04.585Z,86.90
2018-03-25T07:41:32.217Z,85.90
2018-03-25T07:43:59.880Z,85.50
2018-03-25T07:46:27.489Z,84.90
2018-03-25T07:48:55.079Z,84.90
2018-03-25T07:51:22.921Z,84.80
2018-03-25T07:53:51.266Z,84.50
2018-03-25T07:56:19.629Z,83.00
2018-03-25T07:58:47.216Z,83.00
2018-03-25T08:01:14.800Z,83.60
2018-03-25T08:03:42.462Z,83.80
2018-03-25T08:06:10.110Z,84.80
2018-03-25T08:08:37.724Z,85.30
2018-03-25T08:11:05.396Z,85.50
2018-03-25T08:13:33.008Z,84.70
2018-03-25T08:16:01.389Z,84.10
2018-03-25T08:18:28.978Z,84.00
2018-03-25T08:20:56.590Z,82.90
2018-03-25T08:23:24.231Z,82.20
2018-03-25T08:25:51.887Z,82.00
2018-03-25T08:28:19.589Z,82.00
2018-03-25T08:30:47.273Z,81.40
2018-03-25T08:33:14.877Z,80.90
2018-03-25T08:35:42.585Z,80.40
2018-03-25T08:38:10.271Z,79.70
2018-03-25T08:40:38.716Z,78.50
2018-03-25T08:43:07.562Z,78.40
2018-03-25T08:45:36.206Z,77.60
2018-03-25T08:48:04.749Z,77.80
2018-03-25T08:50:32.484Z,77.70
2018-03-25T08:53:00.257Z,76.60
2018-03-25T08:55:27.985Z,75.90
2018-03-25T08:57:55.638Z,75.30
2018-03-25T09:00:23.374Z,76.10
2018-03-25T09:02:52.347Z,76.30
2018-03-25T09:05:19.962Z,76.20
2018-03-25T09:07:48.331Z,75.20
2018-03-25T09:10:16.039Z,75.20
2018-03-25T09:12:44.629Z,74.10
2018-03-25T09:15:13.157Z,73.80
2018-03-25T09:17:41.655Z,74.50
2018-03-25T09:20:09.800Z,73.00
2018-03-25T09:22:37.423Z,72.40
2018-03-25T09:25:05.591Z,71.20
2018-03-25T09:27:34.058Z,70.20
2018-03-25T09:30:02.769Z,70.20
2018-03-25T09:32:31.944Z,69.40
2018-03-25T09:34:59.566Z,70.10
2018-03-25T09:37:27.185Z,68.70
2018-03-25T09:39:55.572Z,63.10
2018-03-25T09:42:25.734Z,64.30
2018-03-25T09:44:54.198Z,63.50
2018-03-25T09:47:21.835Z,63.00
2018-03-25T09:49:49.409Z,59.50
2018-03-25T09:52:17.677Z,58.50
2018-03-25T09:54:45.413Z,58.20
2018-03-25T09:57:13.119Z,57.50
2018-03-25T09:59:41.485Z,58.10
2018-03-25T10:02:28.659Z,58.00
2018-03-25T10:04:56.349Z,57.20
2018-03-25T10:07:24.626Z,55.40
2018-03-25T10:09:52.337Z,56.50
2018-03-25T10:12:21.549Z,57.00
2018-03-25T10:14:50.116Z,57.60
2018-03-25T10:17:21.138Z,55.00
2018-03-25T10:19:51.710Z,54.90
2018-03-25T10:22:25.966Z,54.50
2018-03-25T10:24:54.671Z,55.70
2018-03-25T10:27:22.370Z,56.50
2018-03-25T10:29:50.819Z,55.40
2018-03-25T10:32:19.296Z,55.40
2018-03-25T10:34:47.009Z,55.40
2018-03-25T10:37:16.519Z,53.60
2018-03-25T10:39:46.781Z,53.60
2018-03-25T10:42:14.669Z,53.60
2018-03-25T10:44:44.069Z,53.20
2018-03-25T10:47:13.166Z,53.90
2018-03-25T10:49:41.684Z,55.00
2018-03-25T10:52:09.955Z,51.70
2018-03-25T10:54:37.730Z,51.20
2018-03-25T10:57:05.443Z,51.50
2018-03-25T10:59:34.854Z,50.90
2018-03-25T11:02:03.211Z,50.80
2018-03-25T11:04:31.690Z,52.40
2018-03-25T11:06:59.358Z,52.30
2018-03-25T11:09:28.664Z,53.20
2018-03-25T11:11:56.645Z,53.10
2018-03-25T11:14:24.752Z,51.00
2018-03-25T11:16:52.758Z,50.80
2018-03-25T11:19:21.123Z,49.90
2018-03-25T11:21:49.295Z,50.10
2018-03-25T11:24:17.183Z,51.20
2018-03-25T11:26:45.857Z,48.40
2018-03-25T11:29:13.695Z,48.20
2018-03-25T11:31:41.537Z,47.70
2018-03-25T11:34:09.733Z,48.60
2018-03-25T11:36:38.238Z,48.20
2018-03-25T11:39:06.785Z,46.80
2018-03-25T11:41:38.438Z,46.80
2018-03-25T11:44:06.236Z,46.60
2018-03-25T11:46:34.683Z,47.80
2018-03-25T11:49:02.336Z,47.70
2018-03-25T11:51:30.086Z,47.60
2018-03-25T11:53:57.744Z,48.80
2018-03-25T11:56:25.467Z,49.50
2018-03-25T11:58:53.266Z,49.30
2018-03-25T12:01:21.809Z,50.80
2018-03-25T12:03:50.289Z,50.00
2018-03-25T12:06:17.983Z,49.90
2018-03-25T12:08:45.965Z,49.30
2018-03-25T12:11:14.570Z,50.10
2018-03-25T12:13:42.297Z,50.00
2018-03-25T12:16:10.147Z,51.60
2018-03-25T12:18:38.744Z,50.80
2018-03-25T12:21:07.085Z,51.90
2018-03-25T12:23:34.799Z,50.60
2018-03-25T12:26:03.480Z,49.40
2018-03-25T12:28:31.122Z,47.50
2018-03-25T12:30:58.734Z,47.30
2018-03-25T12:33:26.320Z,47.70
2018-03-25T12:35:54.687Z,47.70
2018-03-25T12:38:22.324Z,47.60
2018-03-25T12:40:50.840Z,47.00
2018-03-25T12:43:18.784Z,46.30
2018-03-25T12:45:49.273Z,46.70
2018-03-25T12:48:17.823Z,47.10
2018-03-25T12:50:45.796Z,47.00
2018-03-25T12:53:14.616Z,46.60
2018-03-25T12:55:43.012Z,47.80
2018-03-25T12:58:11.085Z,47.00
2018-03-25T13:00:40.238Z,47.80
2018-03-25T13:03:08.058Z,46.40
2018-03-25T13:05:46.288Z,47.20
2018-03-25T13:08:15.132Z,46.60
2018-03-25T13:10:44.144Z,46.70
2018-03-25T13:13:12.096Z,46.40
2018-03-25T13:15:40.876Z,47.20
2018-03-25T13:18:08.594Z,46.50
2018-03-25T13:20:37.496Z,47.10
2018-03-25T13:23:06.633Z,46.90
2018-03-25T13:25:34.376Z,46.80
2018-03-25T13:28:03.206Z,47.70
2018-03-25T13:30:32.996Z,47.30
2018-03-25T13:33:02.075Z,48.10
2018-03-25T13:35:31.302Z,48.20
2018-03-25T13:38:00.743Z,49.10
2018-03-25T13:40:28.465Z,48.70
2018-03-25T13:42:56.901Z,49.20
2018-03-25T13:45:25.795Z,48.40
2018-03-25T13:47:54.772Z,49.00
2018-03-25T13:50:23.753Z,49.10
2018-03-25T13:52:52.179Z,49.00
2018-03-25T13:55:20.892Z,48.20
2018-03-25T13:57:48.773Z,49.00
2018-03-25T14:00:16.890Z,49.10
2018-03-25T14:02:44.683Z,48.70
2018-03-25T14:05:15.658Z,49.60
2018-03-25T14:07:46.603Z,49.40
2018-03-25T14:10:16.362Z,49.30
2018-03-25T14:12:48.262Z,49.20
2018-03-25T14:15:16.245Z,49.20
2018-03-25T14:17:46.255Z,49.30
2018-03-25T14:20:14.150Z,50.00
2018-03-25T14:22:47.364Z,50.00
2018-03-25T14:25:15.999Z,50.40
2018-03-25T14:27:46.149Z,50.30
2018-03-25T14:30:14.171Z,50.50
2018-03-25T14:32:42.420Z,48.90
2018-03-25T14:35:10.840Z,48.70
2018-03-25T14:37:40.956Z,49.40
2018-03-25T14:40:08.962Z,50.10
2018-03-25T14:42:37.530Z,49.10
2018-03-25T14:45:06.654Z,49.80
2018-03-25T14:47:35.661Z,49.70
2018-03-25T14:50:06.864Z,49.30
2018-03-25T14:52:34.636Z,50.50
2018-03-25T14:55:03.079Z,49.50
2018-03-25T14:57:31.402Z,50.40
2018-03-25T14:59:59.546Z,50.10
2018-03-25T15:02:27.567Z,49.90
2018-03-25T15:04:57.585Z,50.30
2018-03-25T15:07:25.317Z,50.20
2018-03-25T15:09:53.874Z,50.30
2018-03-25T15:12:24.331Z,50.60
2018-03-25T15:14:52.593Z,50.30
2018-03-25T15:17:22.379Z,50.60
2018-03-25T15:19:50.537Z,51.30
2018-03-25T15:22:20.166Z,50.30
2018-03-25T15:24:49.065Z,50.40
2018-03-25T15:27:17.117Z,50.70
2018-03-25T15:29:46.033Z,50.50
2018-03-25T15:32:14.430Z,51.00
2018-03-25T15:34:44.448Z,51.00
2018-03-25T15:37:13.984Z,51.00
2018-03-25T15:39:42.438Z,51.00
2018-03-25T15:42:11.544Z,51.00
2018-03-25T15:44:39.513Z,51.40
2018-03-25T15:47:08.328Z,51.60
2018-03-25T15:49:36.439Z,51.80
2018-03-25T15:52:04.669Z,51.90
2018-03-25T15:54:32.751Z,51.80
2018-03-25T15:57:01.258Z,52.10
2018-03-25T15:59:29.369Z,52.60
2018-03-25T16:02:00.243Z,52.50
2018-03-25T16:04:28.395Z,52.60
2018-03-25T16:06:59.961Z,52.90
2018-03-25T16:09:33.325Z,52.20
2018-03-25T16:12:02.072Z,52.90
2018-03-25T16:14:32.406Z,52.90
2018-03-25T16:17:00.811Z,53.40
2018-03-25T16:19:30.340Z,54.00
2018-03-25T16:22:00.347Z,54.80
2018-03-25T16:24:29.909Z,54.90
2018-03-25T16:26:58.335Z,56.10
2018-03-25T16:29:26.218Z,55.90
2018-03-25T16:31:54.051Z,55.90
2018-03-25T16:34:22.559Z,56.50
2018-03-25T16:36:52.291Z,56.10
2018-03-25T16:39:21.365Z,56.20
2018-03-25T16:41:49.309Z,57.20
2018-03-25T16:44:17.600Z,57.20
2018-03-25T16:46:47.004Z,57.60
2018-03-25T16:49:16.268Z,57.50
2018-03-25T16:51:43.890Z,57.40
2018-03-25T16:54:11.637Z,57.60
2018-03-25T16:56:40.156Z,58.40
2018-03-25T16:59:07.898Z,58.10
2018-03-25T17:01:41.729Z,58.40
2018-03-25T17:04:12.085Z,58.50
2018-03-25T17:06:41.203Z,58.40
2018-03-25T17:09:09.093Z,58.80
2018-03-25T17:11:47.045Z,58.90
2018-03-25T17:14:15.235Z,58.90
2018-03-25T17:16:44.806Z,59.00
2018-03-25T17:19:12.653Z,59.30
2018-03-25T17:21:41.219Z,59.70
2018-03-25T17:24:09.290Z,59.70
2018-03-25T17:26:37.966Z,59.90
2018-03-25T17:29:05.751Z,59.70
2018-03-25T17:31:33.622Z,59.60
2018-03-25T17:34:01.324Z,59.90
2018-03-25T17:36:29.726Z,60.10
2018-03-25T17:38:58.203Z,59.90
2018-03-25T17:41:26.772Z,59.90
2018-03-25T17:43:54.689Z,60.20
2018-03-25T17:46:24.525Z,60.30
2018-03-25T17:48:53.049Z,61.10
2018-03-25T17:51:23.467Z,60.70
2018-03-25T17:53:51.332Z,60.70
2018-03-25T17:56:19.204Z,61.00
2018-03-25T17:58:47.599Z,61.40
2018-03-25T18:01:15.513Z,61.30
2018-03-25T18:03:43.988Z,61.80
2018-03-25T18:06:11.834Z,62.10
2018-03-25T18:08:39.678Z,63.00
2018-03-25T18:11:08.065Z,65.10
2018-03-25T18:13:35.737Z,65.10
2018-03-25T18:16:03.453Z,65.20
2018-03-25T18:18:31.144Z,66.60
2018-03-25T18:20:58.816Z,67.00
2018-03-25T18:23:26.513Z,67.10
2018-03-25T18:25:54.194Z,68.20
2018-03-25T18:28:23.601Z,68.30
2018-03-25T18:30:52.201Z,68.70
2018-03-25T18:33:19.910Z,68.70
2018-03-25T18:35:48.270Z,69.60
2018-03-25T18:38:16.024Z,69.60
2018-03-25T18:40:43.742Z,70.10
2018-03-25T18:43:11.414Z,70.30
2018-03-25T18:45:39.345Z,70.70
2018-03-25T18:48:07.096Z,71.00
2018-03-25T18:50:35.306Z,71.20
2018-03-25T18:53:03.140Z,71.70
2018-03-25T18:55:31.786Z,72.40
2018-03-25T18:57:59.422Z,72.40
2018-03-25T19:00:27.060Z,72.90
2018-03-25T19:02:55.252Z,73.70
2018-03-25T19:05:23.223Z,74.50
2018-03-25T19:07:52.383Z,75.10
2018-03-25T19:10:20.203Z,75.10
2018-03-25T19:12:48.656Z,75.50
2018-03-25T19:15:16.368Z,76.10
2018-03-25T19:17:45.859Z,76.40
2018-03-25T19:20:14.343Z,76.80
2018-03-25T19:22:43.893Z,77.30
2018-03-25T19:25:11.977Z,77.20
2018-03-25T19:27:41.046Z,77.90
2018-03-25T19:30:09.535Z,78.20
2018-03-25T19:32:38.024Z,78.10
2018-03-25T19:35:05.829Z,78.40
2018-03-25T19:37:35.788Z,78.80
2018-03-25T19:40:05.178Z,79.20
2018-03-25T19:42:33.838Z,79.90
2018-03-25T19:45:02.528Z,80.70
2018-03-25T19:47:30.236Z,81.40
2018-03-25T19:49:58.766Z,81.40
2018-03-25T19:52:26.431Z,81.40
2018-03-25T19:54:56.011Z,81.70
2018-03-25T19:57:25.989Z,82.30
2018-03-25T19:59:54.359Z,82.20
2018-03-25T20:02:22.423Z,82.50
2018-03-25T20:04:50.070Z,82.60
2018-03-25T20:07:17.818Z,83.10
2018-03-25T20:09:45.483Z,83.30
2018-03-25T20:12:13.071Z,83.40
2018-03-25T20:14:40.752Z,83.50
2018-03-25T20:17:08.384Z,83.50
2018-03-25T20:19:36.747Z,84.40
2018-03-25T20:22:04.343Z,84.30
2018-03-25T20:24:31.996Z,84.70
2018-03-25T20:27:00.390Z,84.90
2018-03-25T20:29:28.084Z,84.80
2018-03-25T20:31:55.722Z,85.10
2018-03-25T20:34:23.336Z,85.10
2018-03-25T20:36:50.967Z,85.20
2018-03-25T20:39:18.564Z,85.50
2018-03-25T20:41:46.175Z,85.50
2018-03-25T20:44:14.576Z,85.80
2018-03-25T20:46:42.263Z,85.80
2018-03-25T20:49:09.857Z,85.90
2018-03-25T20:51:37.511Z,86.10
2018-03-25T20:54:05.199Z,86.20
2018-03-25T20:56:32.810Z,86.30
2018-03-25T20:59:00.430Z,86.40
2018-03-25T21:01:28.062Z,86.40
2018-03-25T21:03:55.663Z,86.40
2018-03-25T21:06:23.283Z,86.30
2018-03-25T21:08:50.916Z,86.40
2018-03-25T21:11:19.298Z,86.20
2018-03-25T21:13:47.674Z,86.20
2018-03-25T21:16:16.156Z,86.20
2018-03-25T21:18:45.036Z,86.30
2018-03-25T21:21:12.686Z,86.30
2018-03-25T21:23:40.347Z,86.30
2018-03-25T21:26:07.997Z,86.20
2018-03-25T21:28:37.872Z,86.40
2018-03-25T21:31:05.611Z,86.40
2018-03-25T21:33:33.243Z,86.50
2018-03-25T21:36:00.883Z,86.50
2018-03-25T21:38:29.281Z,86.70
2018-03-25T21:40:56.895Z,86.70
2018-03-25T21:43:24.552Z,86.70
2018-03-25T21:45:52.201Z,86.60
2018-03-25T21:48:19.843Z,86.70
2018-03-25T21:50:47.508Z,86.90
2018-03-25T21:53:15.888Z,86.90
2018-03-25T21:55:44.391Z,87.40
2018-03-25T21:58:12.006Z,87.40
2018-03-25T22:00:39.664Z,87.40
2018-03-25T22:03:08.020Z,87.50
2018-03-25T22:05:35.670Z,88.00
2018-03-25T22:08:03.328Z,88.30
2018-03-25T22:10:30.954Z,88.80
2018-03-25T22:12:58.702Z,88.80
2018-03-25T22:15:26.349Z,89.10
2018-03-25T22:17:54.031Z,89.00
2018-03-25T22:20:21.682Z,89.20
2018-03-25T22:22:49.274Z,89.40
2018-03-25T22:25:16.915Z,88.90
2018-03-25T22:27:45.318Z,89.60
2018-03-25T22:30:13.182Z,89.60
2018-03-25T22:32:40.843Z,90.40
2018-03-25T22:35:08.551Z,90.10
2018-03-25T22:37:36.249Z,90.10
2018-03-25T22:40:03.895Z,90.20
2018-03-25T22:42:32.329Z,90.70
2018-03-25T22:44:59.994Z,90.70
2018-03-25T22:47:27.694Z,90.80
2018-03-25T22:49:55.281Z,90.70
2018-03-25T22:52:23.800Z,90.60
2018-03-25T22:54:51.462Z,90.60
2018-03-25T22:57:19.112Z,90.60
2018-03-25T22:59:47.530Z,90.60
2018-03-25T23:02:15.202Z,90.60
2018-03-25T23:04:43.136Z,90.60
2018-03-25T23:07:10.793Z,90.70
2018-03-25T23:09:38.426Z,91.20
2018-03-25T23:12:06.833Z,91.00
2018-03-25T23:14:34.478Z,91.00
2018-03-25T23:17:02.176Z,91.00
2018-03-25T23:19:29.913Z,91.20
2018-03-25T23:21:57.519Z,91.30
2018-03-25T23:24:26.013Z,91.20
2018-03-25T23:26:53.653Z,91.60
2018-03-25T23:29:22.421Z,92.50
2018-03-25T23:31:50.107Z,92.20
2018-03-25T23:34:17.707Z,92.40
2018-03-25T23:36:45.364Z,92.40
2018-03-25T23:39:13.582Z,92.20
2018-03-25T23:41:41.482Z,92.10
2018-03-25T23:44:09.162Z,92.10
2018-03-25T23:46:36.829Z,92.10
2018-03-25T23:49:05.310Z,92.10
2018-03-25T23:51:33.211Z,92.00
2018-03-25T23:54:00.822Z,92.00
2018-03-25T23:56:28.588Z,92.10
2018-03-25T23:58:56.291Z,92.30
